Terminal Aerodrome Forecast
Issued by NWS

Home | Current Version | Previous Version | Graphics & Text | Print | Product List | Glossary On
Versions: 1 2 3 4 5 6 7 8 9 10 11 12 13 14 15 16 17 18
765
FTUS43 KMPX 040810 AAA
TAFAXN
TAF AMD
KAXN 040810Z 0408/0506 19012KT 5SM -SN BR OVC005
     FM041500 22010KT P6SM OVC008
     FM042000 27011KT P6SM OVC015
     FM050200 25008KT P6SM SCT250=

USA.gov is the U.S. government's official web portal to all federal, state and local government web resources and services.